sensor_id;sensor_type;location;lat;lon;timestamp;P1;durP1;ratioP1;P2;durP2;ratioP2
23400;SDS011;11873;49.300;8.920;2022-09-16T00:01:47;5.33;;;3.27;;
23400;SDS011;11873;49.300;8.920;2022-09-16T00:06:47;4.03;;;3.43;;
23400;SDS011;11873;49.300;8.920;2022-09-16T00:11:47;3.30;;;3.00;;
23400;SDS011;11873;49.300;8.920;2022-09-16T00:16:47;4.73;;;2.97;;
23400;SDS011;11873;49.300;8.920;2022-09-16T00:21:47;3.57;;;2.90;;
23400;SDS011;11873;49.300;8.920;2022-09-16T00:26:47;5.37;;;3.13;;
23400;SDS011;11873;49.300;8.920;2022-09-16T00:31:48;5.93;;;3.53;;
23400;SDS011;11873;49.300;8.920;2022-09-16T00:36:48;7.43;;;2.93;;
23400;SDS011;11873;49.300;8.920;2022-09-16T00:41:48;3.37;;;3.07;;
23400;SDS011;11873;49.300;8.920;2022-09-16T00:46:48;3.17;;;2.97;;
23400;SDS011;11873;49.300;8.920;2022-09-16T00:51:49;4.03;;;3.17;;
23400;SDS011;11873;49.300;8.920;2022-09-16T00:56:50;4.43;;;3.10;;
23400;SDS011;11873;49.300;8.920;2022-09-16T01:01:52;3.40;;;3.10;;
23400;SDS011;11873;49.300;8.920;2022-09-16T01:06:52;5.03;;;3.13;;
23400;SDS011;11873;49.300;8.920;2022-09-16T01:11:53;2.57;;;2.37;;
23400;SDS011;11873;49.300;8.920;2022-09-16T01:17:14;3.00;;;2.00;;
23400;SDS011;11873;49.300;8.920;2022-09-16T01:27:31;2.73;;;2.53;;
23400;SDS011;11873;49.300;8.920;2022-09-16T01:43:00;3.43;;;2.20;;
23400;SDS011;11873;49.300;8.920;2022-09-16T01:53:09;2.40;;;2.20;;
23400;SDS011;11873;49.300;8.920;2022-09-16T01:58:16;2.37;;;2.17;;
23400;SDS011;11873;49.300;8.920;2022-09-16T02:03:22;4.80;;;2.20;;
23400;SDS011;11873;49.300;8.920;2022-09-16T02:08:32;2.40;;;2.20;;
23400;SDS011;11873;49.300;8.920;2022-09-16T02:13:44;3.47;;;2.10;;
23400;SDS011;11873;49.300;8.920;2022-09-16T02:18:47;3.40;;;1.93;;
23400;SDS011;11873;49.300;8.920;2022-09-16T02:23:50;2.50;;;2.30;;
23400;SDS011;11873;49.300;8.920;2022-09-16T02:28:52;5.23;;;2.37;;
23400;SDS011;11873;49.300;8.920;2022-09-16T02:33:58;4.03;;;2.40;;
23400;SDS011;11873;49.300;8.920;2022-09-16T02:39:01;6.73;;;2.33;;
23400;SDS011;11873;49.300;8.920;2022-09-16T02:44:02;5.73;;;2.90;;
23400;SDS011;11873;49.300;8.920;2022-09-16T02:54:26;2.23;;;2.03;;
23400;SDS011;11873;49.300;8.920;2022-09-16T02:59:27;1.87;;;1.77;;
23400;SDS011;11873;49.300;8.920;2022-09-16T03:04:28;3.37;;;1.70;;
23400;SDS011;11873;49.300;8.920;2022-09-16T03:09:28;1.83;;;1.40;;
23400;SDS011;11873;49.300;8.920;2022-09-16T03:14:37;2.00;;;1.63;;
23400;SDS011;11873;49.300;8.920;2022-09-16T03:19:54;3.53;;;1.97;;
23400;SDS011;11873;49.300;8.920;2022-09-16T03:25:02;2.80;;;2.60;;
23400;SDS011;11873;49.300;8.920;2022-09-16T03:30:07;3.60;;;2.07;;
23400;SDS011;11873;49.300;8.920;2022-09-16T03:35:16;2.77;;;1.90;;
23400;SDS011;11873;49.300;8.920;2022-09-16T03:40:18;4.47;;;2.10;;
23400;SDS011;11873;49.300;8.920;2022-09-16T03:45:19;3.47;;;2.03;;
23400;SDS011;11873;49.300;8.920;2022-09-16T03:50:20;2.13;;;1.93;;
23400;SDS011;11873;49.300;8.920;2022-09-16T03:55:20;3.57;;;2.47;;
23400;SDS011;11873;49.300;8.920;2022-09-16T04:00:20;4.60;;;1.93;;
23400;SDS011;11873;49.300;8.920;2022-09-16T04:05:21;3.37;;;2.13;;
23400;SDS011;11873;49.300;8.920;2022-09-16T04:10:21;4.03;;;2.37;;
23400;SDS011;11873;49.300;8.920;2022-09-16T04:15:21;3.53;;;2.60;;
23400;SDS011;11873;49.300;8.920;2022-09-16T04:20:21;3.30;;;2.03;;
23400;SDS011;11873;49.300;8.920;2022-09-16T04:25:22;3.30;;;2.10;;
23400;SDS011;11873;49.300;8.920;2022-09-16T04:30:22;2.53;;;1.87;;
23400;SDS011;11873;49.300;8.920;2022-09-16T04:35:22;3.83;;;2.10;;
23400;SDS011;11873;49.300;8.920;2022-09-16T04:40:22;2.40;;;2.20;;
23400;SDS011;11873;49.300;8.920;2022-09-16T04:45:23;3.60;;;2.60;;
23400;SDS011;11873;49.300;8.920;2022-09-16T04:50:23;1.97;;;1.83;;
23400;SDS011;11873;49.300;8.920;2022-09-16T04:55:23;2.60;;;1.90;;
23400;SDS011;11873;49.300;8.920;2022-09-16T05:00:23;3.43;;;2.20;;
23400;SDS011;11873;49.300;8.920;2022-09-16T05:05:23;5.53;;;2.47;;
23400;SDS011;11873;49.300;8.920;2022-09-16T05:10:24;5.00;;;1.90;;
23400;SDS011;11873;49.300;8.920;2022-09-16T05:15:24;2.43;;;1.77;;
23400;SDS011;11873;49.300;8.920;2022-09-16T05:20:24;2.80;;;1.87;;
23400;SDS011;11873;49.300;8.920;2022-09-16T05:25:24;1.77;;;1.50;;
23400;SDS011;11873;49.300;8.920;2022-09-16T05:30:25;4.47;;;1.87;;
23400;SDS011;11873;49.300;8.920;2022-09-16T05:35:25;4.87;;;2.10;;
23400;SDS011;11873;49.300;8.920;2022-09-16T05:40:25;2.00;;;1.80;;
23400;SDS011;11873;49.300;8.920;2022-09-16T05:45:25;2.33;;;2.13;;
23400;SDS011;11873;49.300;8.920;2022-09-16T05:50:25;7.13;;;5.10;;
23400;SDS011;11873;49.300;8.920;2022-09-16T05:55:25;1.83;;;1.73;;
23400;SDS011;11873;49.300;8.920;2022-09-16T06:00:26;2.27;;;1.80;;
23400;SDS011;11873;49.300;8.920;2022-09-16T06:05:26;2.60;;;1.90;;
23400;SDS011;11873;49.300;8.920;2022-09-16T06:10:26;4.77;;;1.93;;
23400;SDS011;11873;49.300;8.920;2022-09-16T06:15:26;5.30;;;1.80;;
23400;SDS011;11873;49.300;8.920;2022-09-16T06:20:26;4.73;;;1.97;;
23400;SDS011;11873;49.300;8.920;2022-09-16T06:25:26;3.67;;;2.00;;
23400;SDS011;11873;49.300;8.920;2022-09-16T06:30:27;2.17;;;1.97;;
23400;SDS011;11873;49.300;8.920;2022-09-16T06:35:27;3.17;;;1.93;;
23400;SDS011;11873;49.300;8.920;2022-09-16T06:40:27;3.00;;;1.77;;
23400;SDS011;11873;49.300;8.920;2022-09-16T06:45:27;2.07;;;1.80;;
23400;SDS011;11873;49.300;8.920;2022-09-16T06:50:27;4.07;;;2.00;;
23400;SDS011;11873;49.300;8.920;2022-09-16T06:55:27;2.27;;;2.00;;
23400;SDS011;11873;49.300;8.920;2022-09-16T07:00:28;2.30;;;2.10;;
23400;SDS011;11873;49.300;8.920;2022-09-16T07:05:28;2.27;;;2.07;;
23400;SDS011;11873;49.300;8.920;2022-09-16T07:10:28;4.47;;;2.27;;
23400;SDS011;11873;49.300;8.920;2022-09-16T07:15:28;4.20;;;2.17;;
23400;SDS011;11873;49.300;8.920;2022-09-16T07:20:28;3.00;;;1.93;;
23400;SDS011;11873;49.300;8.920;2022-09-16T07:25:29;4.10;;;2.23;;
23400;SDS011;11873;49.300;8.920;2022-09-16T07:30:29;3.03;;;2.00;;
23400;SDS011;11873;49.300;8.920;2022-09-16T07:35:29;3.40;;;2.17;;
23400;SDS011;11873;49.300;8.920;2022-09-16T07:40:29;4.77;;;2.20;;
23400;SDS011;11873;49.300;8.920;2022-09-16T07:45:29;2.73;;;2.00;;
23400;SDS011;11873;49.300;8.920;2022-09-16T07:50:29;3.10;;;2.20;;
23400;SDS011;11873;49.300;8.920;2022-09-16T07:55:30;3.07;;;2.20;;
23400;SDS011;11873;49.300;8.920;2022-09-16T08:00:30;2.40;;;2.00;;
23400;SDS011;11873;49.300;8.920;2022-09-16T08:05:30;3.77;;;2.30;;
23400;SDS011;11873;49.300;8.920;2022-09-16T08:10:31;7.30;;;2.50;;
23400;SDS011;11873;49.300;8.920;2022-09-16T08:15:31;2.63;;;2.13;;
23400;SDS011;11873;49.300;8.920;2022-09-16T08:20:31;2.73;;;2.33;;
23400;SDS011;11873;49.300;8.920;2022-09-16T08:25:31;2.57;;;1.87;;
23400;SDS011;11873;49.300;8.920;2022-09-16T08:30:31;4.63;;;2.60;;
23400;SDS011;11873;49.300;8.920;2022-09-16T08:35:32;4.23;;;1.90;;
23400;SDS011;11873;49.300;8.920;2022-09-16T08:40:33;2.43;;;2.10;;
23400;SDS011;11873;49.300;8.920;2022-09-16T08:45:47;3.33;;;2.47;;
23400;SDS011;11873;49.300;8.920;2022-09-16T08:50:49;2.63;;;2.17;;
23400;SDS011;11873;49.300;8.920;2022-09-16T08:55:50;2.17;;;1.97;;
23400;SDS011;11873;49.300;8.920;2022-09-16T09:00:58;3.83;;;2.10;;
23400;SDS011;11873;49.300;8.920;2022-09-16T09:05:59;1.57;;;1.47;;
23400;SDS011;11873;49.300;8.920;2022-09-16T09:11:03;2.37;;;1.70;;
23400;SDS011;11873;49.300;8.920;2022-09-16T09:26:56;2.87;;;2.37;;
23400;SDS011;11873;49.300;8.920;2022-09-16T09:32:11;2.17;;;1.97;;
23400;SDS011;11873;49.300;8.920;2022-09-16T09:42:40;4.80;;;2.83;;
23400;SDS011;11873;49.300;8.920;2022-09-16T09:47:47;3.43;;;2.70;;
23400;SDS011;11873;49.300;8.920;2022-09-16T09:52:52;6.23;;;3.03;;
23400;SDS011;11873;49.300;8.920;2022-09-16T09:57:56;2.10;;;1.90;;
23400;SDS011;11873;49.300;8.920;2022-09-16T10:03:12;4.20;;;2.17;;
23400;SDS011;11873;49.300;8.920;2022-09-16T10:08:23;4.90;;;2.37;;
23400;SDS011;11873;49.300;8.920;2022-09-16T10:13:24;3.40;;;1.60;;
23400;SDS011;11873;49.300;8.920;2022-09-16T10:18:26;3.70;;;1.90;;
23400;SDS011;11873;49.300;8.920;2022-09-16T10:23:27;2.83;;;1.83;;
23400;SDS011;11873;49.300;8.920;2022-09-16T10:28:27;4.03;;;1.60;;
23400;SDS011;11873;49.300;8.920;2022-09-16T10:33:28;1.50;;;1.40;;
23400;SDS011;11873;49.300;8.920;2022-09-16T10:38:34;2.13;;;1.50;;
23400;SDS011;11873;49.300;8.920;2022-09-16T10:43:35;2.50;;;1.30;;
23400;SDS011;11873;49.300;8.920;2022-09-16T10:48:39;2.07;;;1.30;;
23400;SDS011;11873;49.300;8.920;2022-09-16T10:53:43;1.70;;;1.30;;
23400;SDS011;11873;49.300;8.920;2022-09-16T10:58:43;1.43;;;1.20;;
23400;SDS011;11873;49.300;8.920;2022-09-16T11:09:05;5.33;;;2.40;;
23400;SDS011;11873;49.300;8.920;2022-09-16T11:14:16;3.27;;;1.70;;
23400;SDS011;11873;49.300;8.920;2022-09-16T11:24:58;3.43;;;1.40;;
23400;SDS011;11873;49.300;8.920;2022-09-16T11:45:44;1.93;;;1.33;;
23400;SDS011;11873;49.300;8.920;2022-09-16T12:00:46;3.20;;;1.30;;
23400;SDS011;11873;49.300;8.920;2022-09-16T12:05:55;0.80;;;0.80;;
23400;SDS011;11873;49.300;8.920;2022-09-16T12:11:12;1.20;;;1.10;;
23400;SDS011;11873;49.300;8.920;2022-09-16T12:16:17;2.53;;;0.90;;
23400;SDS011;11873;49.300;8.920;2022-09-16T12:21:23;2.10;;;0.70;;
23400;SDS011;11873;49.300;8.920;2022-09-16T12:26:25;1.40;;;0.70;;
23400;SDS011;11873;49.300;8.920;2022-09-16T12:31:33;2.37;;;1.20;;
23400;SDS011;11873;49.300;8.920;2022-09-16T12:36:35;1.20;;;0.93;;
23400;SDS011;11873;49.300;8.920;2022-09-16T12:41:40;0.80;;;0.80;;
23400;SDS011;11873;49.300;8.920;2022-09-16T12:57:31;1.13;;;0.73;;
23400;SDS011;11873;49.300;8.920;2022-09-16T13:02:41;2.63;;;0.90;;
23400;SDS011;11873;49.300;8.920;2022-09-16T13:07:46;1.70;;;1.30;;
23400;SDS011;11873;49.300;8.920;2022-09-16T13:12:48;1.73;;;1.07;;
23400;SDS011;11873;49.300;8.920;2022-09-16T13:17:48;1.80;;;1.27;;
23400;SDS011;11873;49.300;8.920;2022-09-16T13:23:01;1.63;;;0.93;;
23400;SDS011;11873;49.300;8.920;2022-09-16T13:33:25;1.20;;;0.97;;
23400;SDS011;11873;49.300;8.920;2022-09-16T13:38:37;0.80;;;0.80;;
23400;SDS011;11873;49.300;8.920;2022-09-16T13:48:50;1.90;;;1.00;;
23400;SDS011;11873;49.300;8.920;2022-09-16T13:53:53;2.17;;;0.90;;
23400;SDS011;11873;49.300;8.920;2022-09-16T13:59:10;1.90;;;1.00;;
23400;SDS011;11873;49.300;8.920;2022-09-16T14:04:22;1.37;;;1.00;;
23400;SDS011;11873;49.300;8.920;2022-09-16T14:14:36;1.00;;;0.90;;
23400;SDS011;11873;49.300;8.920;2022-09-16T14:19:36;1.67;;;1.10;;
23400;SDS011;11873;49.300;8.920;2022-09-16T14:24:38;1.37;;;1.10;;
23400;SDS011;11873;49.300;8.920;2022-09-16T14:29:39;1.57;;;1.00;;
23400;SDS011;11873;49.300;8.920;2022-09-16T14:34:39;5.80;;;1.43;;
23400;SDS011;11873;49.300;8.920;2022-09-16T14:39:39;2.53;;;1.30;;
23400;SDS011;11873;49.300;8.920;2022-09-16T14:44:47;1.43;;;0.90;;
23400;SDS011;11873;49.300;8.920;2022-09-16T14:49:50;0.80;;;0.80;;
23400;SDS011;11873;49.300;8.920;2022-09-16T14:54:51;1.37;;;0.90;;
23400;SDS011;11873;49.300;8.920;2022-09-16T14:59:58;0.87;;;0.80;;
23400;SDS011;11873;49.300;8.920;2022-09-16T15:05:20;3.80;;;1.07;;
23400;SDS011;11873;49.300;8.920;2022-09-16T15:10:23;1.03;;;0.70;;
23400;SDS011;11873;49.300;8.920;2022-09-16T15:15:25;0.77;;;0.77;;
23400;SDS011;11873;49.300;8.920;2022-09-16T15:20:27;0.70;;;0.70;;
23400;SDS011;11873;49.300;8.920;2022-09-16T15:25:30;1.50;;;0.97;;
23400;SDS011;11873;49.300;8.920;2022-09-16T15:30:31;1.43;;;0.97;;
23400;SDS011;11873;49.300;8.920;2022-09-16T15:35:31;1.10;;;1.00;;
23400;SDS011;11873;49.300;8.920;2022-09-16T15:40:32;1.90;;;0.80;;
23400;SDS011;11873;49.300;8.920;2022-09-16T15:45:32;0.93;;;0.93;;
23400;SDS011;11873;49.300;8.920;2022-09-16T15:50:37;1.27;;;0.80;;
23400;SDS011;11873;49.300;8.920;2022-09-16T15:55:40;0.60;;;0.60;;
23400;SDS011;11873;49.300;8.920;2022-09-16T16:05:57;0.87;;;0.70;;
23400;SDS011;11873;49.300;8.920;2022-09-16T16:11:08;1.30;;;1.03;;
23400;SDS011;11873;49.300;8.920;2022-09-16T16:16:09;4.30;;;0.70;;
23400;SDS011;11873;49.300;8.920;2022-09-16T16:21:11;0.70;;;0.70;;
23400;SDS011;11873;49.300;8.920;2022-09-16T16:26:12;0.70;;;0.70;;
23400;SDS011;11873;49.300;8.920;2022-09-16T16:31:13;0.80;;;0.80;;
23400;SDS011;11873;49.300;8.920;2022-09-16T16:36:14;0.63;;;0.63;;
23400;SDS011;11873;49.300;8.920;2022-09-16T16:41:19;1.10;;;0.90;;
23400;SDS011;11873;49.300;8.920;2022-09-16T16:46:19;1.00;;;1.00;;
23400;SDS011;11873;49.300;8.920;2022-09-16T16:51:19;0.80;;;0.80;;
23400;SDS011;11873;49.300;8.920;2022-09-16T16:56:19;0.80;;;0.80;;
23400;SDS011;11873;49.300;8.920;2022-09-16T17:01:20;1.03;;;0.90;;
23400;SDS011;11873;49.300;8.920;2022-09-16T17:06:20;1.40;;;1.03;;
23400;SDS011;11873;49.300;8.920;2022-09-16T17:11:20;1.63;;;1.03;;
23400;SDS011;11873;49.300;8.920;2022-09-16T17:16:21;0.80;;;0.80;;
23400;SDS011;11873;49.300;8.920;2022-09-16T17:21:23;2.20;;;0.90;;
23400;SDS011;11873;49.300;8.920;2022-09-16T17:26:23;0.80;;;0.80;;
23400;SDS011;11873;49.300;8.920;2022-09-16T17:31:27;1.07;;;0.87;;
23400;SDS011;11873;49.300;8.920;2022-09-16T17:36:28;0.80;;;0.80;;
23400;SDS011;11873;49.300;8.920;2022-09-16T17:41:28;0.83;;;0.83;;
23400;SDS011;11873;49.300;8.920;2022-09-16T17:46:29;0.97;;;0.70;;
23400;SDS011;11873;49.300;8.920;2022-09-16T17:51:29;3.20;;;0.70;;
23400;SDS011;11873;49.300;8.920;2022-09-16T17:56:30;1.13;;;0.77;;
23400;SDS011;11873;49.300;8.920;2022-09-16T18:01:30;1.00;;;0.80;;
23400;SDS011;11873;49.300;8.920;2022-09-16T18:06:31;0.80;;;0.80;;
23400;SDS011;11873;49.300;8.920;2022-09-16T18:11:32;0.80;;;0.80;;
23400;SDS011;11873;49.300;8.920;2022-09-16T18:16:32;0.97;;;0.80;;
23400;SDS011;11873;49.300;8.920;2022-09-16T18:21:32;0.73;;;0.73;;
23400;SDS011;11873;49.300;8.920;2022-09-16T18:26:33;0.60;;;0.60;;
23400;SDS011;11873;49.300;8.920;2022-09-16T18:31:33;0.70;;;0.70;;
23400;SDS011;11873;49.300;8.920;2022-09-16T18:36:33;0.77;;;0.77;;
23400;SDS011;11873;49.300;8.920;2022-09-16T18:41:34;0.80;;;0.80;;
23400;SDS011;11873;49.300;8.920;2022-09-16T18:46:35;0.70;;;0.70;;
23400;SDS011;11873;49.300;8.920;2022-09-16T18:51:37;0.67;;;0.67;;
23400;SDS011;11873;49.300;8.920;2022-09-16T18:56:37;0.70;;;0.70;;
23400;SDS011;11873;49.300;8.920;2022-09-16T19:01:38;2.07;;;0.80;;
23400;SDS011;11873;49.300;8.920;2022-09-16T19:06:39;0.70;;;0.70;;
23400;SDS011;11873;49.300;8.920;2022-09-16T19:11:40;0.60;;;0.60;;
23400;SDS011;11873;49.300;8.920;2022-09-16T19:16:41;0.70;;;0.70;;
23400;SDS011;11873;49.300;8.920;2022-09-16T19:21:42;0.80;;;0.80;;
23400;SDS011;11873;49.300;8.920;2022-09-16T19:26:43;0.73;;;0.70;;
23400;SDS011;11873;49.300;8.920;2022-09-16T19:31:44;0.80;;;0.80;;
23400;SDS011;11873;49.300;8.920;2022-09-16T19:36:44;0.77;;;0.73;;
23400;SDS011;11873;49.300;8.920;2022-09-16T19:41:44;0.60;;;0.60;;
23400;SDS011;11873;49.300;8.920;2022-09-16T19:46:45;0.90;;;0.90;;
23400;SDS011;11873;49.300;8.920;2022-09-16T19:51:45;0.77;;;0.77;;
23400;SDS011;11873;49.300;8.920;2022-09-16T19:56:45;0.73;;;0.73;;
23400;SDS011;11873;49.300;8.920;2022-09-16T20:01:46;1.23;;;0.90;;
23400;SDS011;11873;49.300;8.920;2022-09-16T20:06:46;0.77;;;0.77;;
23400;SDS011;11873;49.300;8.920;2022-09-16T20:11:47;0.80;;;0.80;;
23400;SDS011;11873;49.300;8.920;2022-09-16T20:16:48;1.30;;;1.20;;
23400;SDS011;11873;49.300;8.920;2022-09-16T20:21:48;1.00;;;1.00;;
23400;SDS011;11873;49.300;8.920;2022-09-16T20:26:49;1.13;;;0.93;;
23400;SDS011;11873;49.300;8.920;2022-09-16T20:31:49;0.80;;;0.80;;
23400;SDS011;11873;49.300;8.920;2022-09-16T20:36:50;1.00;;;0.97;;
23400;SDS011;11873;49.300;8.920;2022-09-16T20:41:51;0.70;;;0.70;;
23400;SDS011;11873;49.300;8.920;2022-09-16T20:46:51;0.67;;;0.67;;
23400;SDS011;11873;49.300;8.920;2022-09-16T20:51:51;1.03;;;0.90;;
23400;SDS011;11873;49.300;8.920;2022-09-16T20:56:51;0.93;;;0.63;;
23400;SDS011;11873;49.300;8.920;2022-09-16T21:01:52;1.13;;;1.03;;
23400;SDS011;11873;49.300;8.920;2022-09-16T21:06:52;0.70;;;0.70;;
23400;SDS011;11873;49.300;8.920;2022-09-16T21:11:52;1.07;;;0.97;;
23400;SDS011;11873;49.300;8.920;2022-09-16T21:16:52;0.80;;;0.80;;
23400;SDS011;11873;49.300;8.920;2022-09-16T21:21:52;0.60;;;0.60;;
23400;SDS011;11873;49.300;8.920;2022-09-16T21:26:52;0.80;;;0.80;;
23400;SDS011;11873;49.300;8.920;2022-09-16T21:31:53;0.60;;;0.60;;
23400;SDS011;11873;49.300;8.920;2022-09-16T21:36:53;2.53;;;0.73;;
23400;SDS011;11873;49.300;8.920;2022-09-16T21:41:53;0.80;;;0.80;;
23400;SDS011;11873;49.300;8.920;2022-09-16T21:46:53;0.70;;;0.70;;
23400;SDS011;11873;49.300;8.920;2022-09-16T21:51:54;0.63;;;0.63;;
23400;SDS011;11873;49.300;8.920;2022-09-16T21:56:55;0.80;;;0.70;;
23400;SDS011;11873;49.300;8.920;2022-09-16T22:01:55;2.37;;;0.80;;
23400;SDS011;11873;49.300;8.920;2022-09-16T22:06:55;1.10;;;1.00;;
23400;SDS011;11873;49.300;8.920;2022-09-16T22:11:55;1.00;;;0.70;;
23400;SDS011;11873;49.300;8.920;2022-09-16T22:16:55;2.10;;;0.90;;
23400;SDS011;11873;49.300;8.920;2022-09-16T22:21:56;0.83;;;0.73;;
23400;SDS011;11873;49.300;8.920;2022-09-16T22:26:56;1.23;;;0.80;;
23400;SDS011;11873;49.300;8.920;2022-09-16T22:31:56;1.17;;;1.00;;
23400;SDS011;11873;49.300;8.920;2022-09-16T22:36:56;0.70;;;0.70;;
23400;SDS011;11873;49.300;8.920;2022-09-16T22:41:56;0.80;;;0.80;;
23400;SDS011;11873;49.300;8.920;2022-09-16T22:46:56;0.80;;;0.80;;
23400;SDS011;11873;49.300;8.920;2022-09-16T22:51:57;0.60;;;0.60;;
23400;SDS011;11873;49.300;8.920;2022-09-16T22:56:57;0.87;;;0.87;;
23400;SDS011;11873;49.300;8.920;2022-09-16T23:01:57;2.00;;;0.80;;
23400;SDS011;11873;49.300;8.920;2022-09-16T23:06:57;1.07;;;0.90;;
23400;SDS011;11873;49.300;8.920;2022-09-16T23:11:57;1.10;;;1.00;;
23400;SDS011;11873;49.300;8.920;2022-09-16T23:16:57;0.70;;;0.70;;
23400;SDS011;11873;49.300;8.920;2022-09-16T23:21:58;0.87;;;0.70;;
23400;SDS011;11873;49.300;8.920;2022-09-16T23:26:58;1.50;;;0.70;;
23400;SDS011;11873;49.300;8.920;2022-09-16T23:31:58;0.80;;;0.80;;
23400;SDS011;11873;49.300;8.920;2022-09-16T23:36:58;0.70;;;0.70;;
23400;SDS011;11873;49.300;8.920;2022-09-16T23:41:58;0.80;;;0.80;;
23400;SDS011;11873;49.300;8.920;2022-09-16T23:46:59;0.93;;;0.83;;
23400;SDS011;11873;49.300;8.920;2022-09-16T23:51:59;0.70;;;0.70;;
23400;SDS011;11873;49.300;8.920;2022-09-16T23:56:59;0.70;;;0.70;;
